DLH2511 EDDM-KLAX
Flight info
| Callsign | DLH2511 |
|---|---|
| Flight time | N/A |
| Altitude | 36000 |
| Route | GIVMI6S GIVMI Y101 INBED DCT REKDI DCT LOHRE DCT ADKUV DCT DENUT L610 KOPUL Q60 OKSAW DCT TEWXI DCT LIPGO DCT KLY DCT ENULA DCT PIKIL/M083F380 NATA URTAK/N0484F380 DCT LAKES DCT 57N070W 55N080W 5230N09000W/N0482F400 DCT KP18A DCT KU06W DCT KD87U DCT KU54O DCT NORRA J107 BLD DCT HAKMN ANJLL4 |
| Aircraft | A388/J-SADE2E3FGHIJ3J4J5M1RWXY/LB1D1 |
Departure
| Time | 2026-05-06 10:00 |
|---|---|
| Airport | Munich Airport (EDDM) |
Arrival
| Time | N/A |
|---|---|
| Airport | Los Angeles International Airport (KLAX) |
| Time | Latitude | Longitude | Altitude | Speed | Heading |
|---|---|---|---|---|---|
| 2026-05-06 09:14 | 48.35242 | 11.80046 | 1472 ft | 0 kts | 263° |
| 2026-05-06 09:43 | 48.35244 | 11.80073 | 1460 ft | 4 kts | 260° |
| 2026-05-06 09:43 | 48.35249 | 11.80112 | 1460 ft | 4 kts | 259° |
| 2026-05-06 09:44 | 48.35254 | 11.80146 | 1460 ft | 4 kts | 249° |
| 2026-05-06 09:44 | 48.35265 | 11.80171 | 1460 ft | 4 kts | 214° |
| 2026-05-06 09:44 | 48.35282 | 11.80179 | 1460 ft | 4 kts | 175° |
| 2026-05-06 09:44 | 48.35308 | 11.80172 | 1460 ft | 4 kts | 171° |
| 2026-05-06 09:45 | 48.35317 | 11.80170 | 1460 ft | 0 kts | 174° |
| 2026-05-06 09:47 | 48.35313 | 11.80171 | 1460 ft | 2 kts | 174° |
| 2026-05-06 09:47 | 48.35290 | 11.80174 | 1460 ft | 4 kts | 176° |
| 2026-05-06 09:48 | 48.35272 | 11.80176 | 1460 ft | 4 kts | 175° |
| 2026-05-06 09:48 | 48.35247 | 11.80180 | 1460 ft | 0 kts | 174° |
| 2026-05-06 09:48 | 48.35238 | 11.80182 | 1460 ft | 3 kts | 174° |
| 2026-05-06 09:48 | 48.35205 | 11.80188 | 1467 ft | 6 kts | 172° |
| 2026-05-06 09:49 | 48.35156 | 11.80191 | 1465 ft | 6 kts | 204° |
| 2026-05-06 09:49 | 48.35129 | 11.80142 | 1463 ft | 7 kts | 249° |
| 2026-05-06 09:49 | 48.35122 | 11.80058 | 1465 ft | 9 kts | 267° |
| 2026-05-06 09:49 | 48.35116 | 11.79950 | 1464 ft | 11 kts | 263° |
| 2026-05-06 09:50 | 48.35107 | 11.79824 | 1472 ft | 13 kts | 264° |
| 2026-05-06 09:50 | 48.35096 | 11.79687 | 1465 ft | 14 kts | 262° |
| 2026-05-06 09:50 | 48.35093 | 11.79545 | 1467 ft | 11 kts | 298° |
| 2026-05-06 09:50 | 48.35157 | 11.79504 | 1466 ft | 11 kts | 353° |
| 2026-05-06 09:51 | 48.35239 | 11.79491 | 1472 ft | 13 kts | 354° |
| 2026-05-06 09:51 | 48.35332 | 11.79476 | 1467 ft | 14 kts | 354° |
| 2026-05-06 09:51 | 48.35431 | 11.79460 | 1466 ft | 15 kts | 354° |
| 2026-05-06 09:51 | 48.35537 | 11.79441 | 1466 ft | 16 kts | 353° |
| 2026-05-06 09:52 | 48.35648 | 11.79422 | 1466 ft | 16 kts | 353° |
| 2026-05-06 09:52 | 48.35762 | 11.79404 | 1472 ft | 16 kts | 354° |
| 2026-05-06 09:52 | 48.35846 | 11.79389 | 1463 ft | 11 kts | 351° |
| 2026-05-06 09:52 | 48.35910 | 11.79359 | 1463 ft | 10 kts | 338° |
| 2026-05-06 09:53 | 48.35979 | 11.79336 | 1462 ft | 11 kts | 355° |
| 2026-05-06 09:53 | 48.36056 | 11.79327 | 1463 ft | 8 kts | 345° |
| 2026-05-06 09:53 | 48.36084 | 11.79278 | 1467 ft | 7 kts | 276° |
| 2026-05-06 09:53 | 48.36081 | 11.79194 | 1468 ft | 9 kts | 265° |
| 2026-05-06 09:54 | 48.36074 | 11.79087 | 1465 ft | 11 kts | 264° |
| 2026-05-06 09:54 | 48.36065 | 11.78960 | 1464 ft | 13 kts | 263° |
| 2026-05-06 09:54 | 48.36054 | 11.78816 | 1466 ft | 14 kts | 263° |
| 2026-05-06 09:54 | 48.36042 | 11.78661 | 1472 ft | 16 kts | 263° |
| 2026-05-06 09:55 | 48.36029 | 11.78494 | 1466 ft | 17 kts | 263° |
| 2026-05-06 09:55 | 48.36015 | 11.78321 | 1468 ft | 17 kts | 265° |
| 2026-05-06 09:55 | 48.36002 | 11.78139 | 1463 ft | 18 kts | 262° |
| 2026-05-06 09:55 | 48.35986 | 11.77952 | 1465 ft | 18 kts | 263° |
| 2026-05-06 09:56 | 48.35971 | 11.77763 | 1472 ft | 18 kts | 263° |
| 2026-05-06 09:56 | 48.35957 | 11.77572 | 1466 ft | 19 kts | 263° |
| 2026-05-06 09:56 | 48.35942 | 11.77378 | 1465 ft | 19 kts | 264° |
| 2026-05-06 09:56 | 48.35930 | 11.77209 | 1465 ft | 16 kts | 263° |
| 2026-05-06 09:57 | 48.35916 | 11.77043 | 1467 ft | 17 kts | 263° |
| 2026-05-06 09:57 | 48.35923 | 11.76879 | 1460 ft | 15 kts | 307° |
| 2026-05-06 09:57 | 48.36019 | 11.76817 | 1464 ft | 16 kts | 353° |
| 2026-05-06 09:57 | 48.36131 | 11.76797 | 1462 ft | 17 kts | 353° |
| 2026-05-06 09:58 | 48.36251 | 11.76811 | 1465 ft | 17 kts | 29° |
| 2026-05-06 09:58 | 48.36291 | 11.76920 | 1463 ft | 1 kts | 83° |
| 2026-05-06 09:58 | 48.36291 | 11.76928 | 1462 ft | 4 kts | 83° |
| 2026-05-06 09:58 | 48.36318 | 11.77292 | 1469 ft | 71 kts | 84° |
| 2026-05-06 09:59 | 48.36405 | 11.78358 | 1468 ft | 132 kts | 82° |
| 2026-05-06 09:59 | 48.36519 | 11.79943 | 1467 ft | 170 kts | 84° |
| 2026-05-06 09:59 | 48.36655 | 11.81827 | 1549 ft | 187 kts | 83° |
| 2026-05-06 09:59 | 48.36816 | 11.83686 | 2070 ft | 180 kts | 82° |
| 2026-05-06 10:00 | 48.37009 | 11.85573 | 2448 ft | 183 kts | 74° |
| 2026-05-06 10:00 | 48.37585 | 11.87224 | 2954 ft | 177 kts | 48° |
| 2026-05-06 10:00 | 48.38603 | 11.88311 | 3218 ft | 188 kts | 21° |
| 2026-05-06 10:00 | 48.39944 | 11.88502 | 3339 ft | 203 kts | 350° |
| 2026-05-06 10:01 | 48.41231 | 11.87520 | 3463 ft | 216 kts | 317° |
| 2026-05-06 10:01 | 48.42279 | 11.85819 | 3564 ft | 231 kts | 309° |
| 2026-05-06 10:01 | 48.43356 | 11.83845 | 3791 ft | 254 kts | 310° |
| 2026-05-06 10:01 | 48.44526 | 11.81761 | 4124 ft | 270 kts | 310° |
| 2026-05-06 10:02 | 48.45762 | 11.79595 | 4763 ft | 276 kts | 310° |
| 2026-05-06 10:02 | 48.47021 | 11.77393 | 5456 ft | 278 kts | 310° |
| 2026-05-06 10:02 | 48.48282 | 11.75183 | 6234 ft | 279 kts | 310° |
| 2026-05-06 10:02 | 48.49552 | 11.72950 | 6905 ft | 282 kts | 309° |
| 2026-05-06 10:03 | 48.50827 | 11.70703 | 7612 ft | 284 kts | 308° |
| 2026-05-06 10:03 | 48.52120 | 11.68423 | 8261 ft | 287 kts | 308° |
| 2026-05-06 10:03 | 48.53409 | 11.66147 | 8909 ft | 290 kts | 308° |
| 2026-05-06 10:03 | 48.54737 | 11.63801 | 9590 ft | 293 kts | 307° |
| 2026-05-06 10:04 | 48.56067 | 11.61449 | 10199 ft | 297 kts | 307° |
| 2026-05-06 10:04 | 48.57398 | 11.59092 | 10767 ft | 301 kts | 307° |
| 2026-05-06 10:04 | 48.58792 | 11.56619 | 10970 ft | 319 kts | 307° |
| 2026-05-06 10:04 | 48.60266 | 11.53999 | 11147 ft | 335 kts | 307° |
| 2026-05-06 10:05 | 48.61815 | 11.51245 | 11366 ft | 350 kts | 308° |
| 2026-05-06 10:05 | 48.63400 | 11.48432 | 11879 ft | 354 kts | 308° |
| 2026-05-06 10:05 | 48.65004 | 11.45585 | 12412 ft | 358 kts | 307° |
| 2026-05-06 10:05 | 48.66625 | 11.42702 | 12952 ft | 361 kts | 307° |
| 2026-05-06 10:06 | 48.68256 | 11.39795 | 13472 ft | 365 kts | 307° |
| 2026-05-06 10:06 | 48.69987 | 11.36956 | 13986 ft | 370 kts | 315° |
| 2026-05-06 10:06 | 48.71980 | 11.34555 | 14513 ft | 374 kts | 323° |
| 2026-05-06 10:06 | 48.74165 | 11.32403 | 15009 ft | 376 kts | 323° |
| 2026-05-06 10:07 | 48.76353 | 11.30202 | 15474 ft | 379 kts | 323° |
| 2026-05-06 10:07 | 48.78550 | 11.27968 | 15948 ft | 382 kts | 323° |
| 2026-05-06 10:07 | 48.80765 | 11.25711 | 16418 ft | 385 kts | 323° |
| 2026-05-06 10:07 | 48.83001 | 11.23449 | 16915 ft | 387 kts | 325° |
| 2026-05-06 10:08 | 48.85397 | 11.21539 | 17381 ft | 393 kts | 334° |
| 2026-05-06 10:08 | 48.87988 | 11.20146 | 17870 ft | 396 kts | 340° |
| 2026-05-06 10:08 | 48.90621 | 11.18846 | 18291 ft | 399 kts | 339° |
| 2026-05-06 10:08 | 48.93263 | 11.17505 | 18667 ft | 402 kts | 339° |
| 2026-05-06 10:09 | 48.95926 | 11.16143 | 19070 ft | 405 kts | 339° |
| 2026-05-06 10:09 | 48.98609 | 11.14770 | 19449 ft | 408 kts | 339° |
| 2026-05-06 10:09 | 49.01271 | 11.13409 | 19843 ft | 411 kts | 339° |
| 2026-05-06 10:09 | 49.03993 | 11.12021 | 20221 ft | 413 kts | 339° |
| 2026-05-06 10:10 | 49.06723 | 11.10628 | 20600 ft | 416 kts | 339° |
| 2026-05-06 10:10 | 49.09466 | 11.09228 | 20965 ft | 418 kts | 338° |
| 2026-05-06 10:10 | 49.12226 | 11.07816 | 21364 ft | 420 kts | 339° |
| 2026-05-06 10:10 | 49.15009 | 11.06396 | 21733 ft | 423 kts | 339° |
| 2026-05-06 10:11 | 49.17805 | 11.04969 | 22081 ft | 425 kts | 339° |
| 2026-05-06 10:11 | 49.20622 | 11.03529 | 22447 ft | 428 kts | 339° |
| 2026-05-06 10:11 | 49.23409 | 11.02097 | 22876 ft | 428 kts | 338° |
| 2026-05-06 10:11 | 49.26230 | 11.00644 | 23294 ft | 429 kts | 338° |
| 2026-05-06 10:12 | 49.29071 | 10.99176 | 23581 ft | 432 kts | 338° |
| 2026-05-06 10:12 | 49.31925 | 10.97701 | 23887 ft | 434 kts | 338° |
| 2026-05-06 10:12 | 49.34783 | 10.96222 | 24182 ft | 436 kts | 337° |
| 2026-05-06 10:12 | 49.37534 | 10.94321 | 24481 ft | 431 kts | 324° |
| 2026-05-06 10:13 | 49.39924 | 10.91603 | 24796 ft | 426 kts | 311° |
| 2026-05-06 10:13 | 49.41889 | 10.88253 | 25113 ft | 421 kts | 303° |
| 2026-05-06 10:13 | 49.43695 | 10.84777 | 25450 ft | 423 kts | 303° |
| 2026-05-06 10:13 | 49.45559 | 10.81253 | 25812 ft | 425 kts | 303° |
| 2026-05-06 10:14 | 49.47429 | 10.77724 | 26264 ft | 425 kts | 304° |
| 2026-05-06 10:14 | 49.49304 | 10.74178 | 26569 ft | 429 kts | 304° |
| 2026-05-06 10:14 | 49.51188 | 10.70603 | 26934 ft | 431 kts | 303° |
| 2026-05-06 10:14 | 49.53081 | 10.67001 | 27280 ft | 434 kts | 303° |
| 2026-05-06 10:15 | 49.54978 | 10.63385 | 27641 ft | 436 kts | 303° |
| 2026-05-06 10:15 | 49.56886 | 10.59741 | 28018 ft | 439 kts | 303° |
| 2026-05-06 10:15 | 49.58807 | 10.56068 | 28393 ft | 441 kts | 302° |
| 2026-05-06 10:15 | 49.60705 | 10.52433 | 28751 ft | 443 kts | 302° |
| 2026-05-06 10:16 | 49.62642 | 10.48718 | 29117 ft | 446 kts | 302° |
| 2026-05-06 10:16 | 49.64593 | 10.44971 | 29477 ft | 449 kts | 302° |
| 2026-05-06 10:16 | 49.66445 | 10.41119 | 29850 ft | 446 kts | 296° |
| 2026-05-06 10:16 | 49.68177 | 10.37142 | 30091 ft | 452 kts | 297° |
| 2026-05-06 10:17 | 49.69955 | 10.33121 | 30446 ft | 454 kts | 298° |
| 2026-05-06 10:17 | 49.71744 | 10.29089 | 30838 ft | 455 kts | 298° |
| 2026-05-06 10:17 | 49.73531 | 10.25049 | 31167 ft | 457 kts | 298° |
| 2026-05-06 10:17 | 49.75300 | 10.21036 | 31529 ft | 458 kts | 298° |
| 2026-05-06 10:18 | 49.77097 | 10.16949 | 31834 ft | 461 kts | 298° |
| 2026-05-06 10:18 | 49.78903 | 10.12833 | 32137 ft | 463 kts | 298° |
| 2026-05-06 10:18 | 49.80713 | 10.08698 | 32440 ft | 465 kts | 298° |
| 2026-05-06 10:18 | 49.82530 | 10.04541 | 32766 ft | 468 kts | 298° |
| 2026-05-06 10:19 | 49.84358 | 10.00355 | 33073 ft | 470 kts | 298° |
| 2026-05-06 10:19 | 49.86201 | 9.96122 | 33193 ft | 477 kts | 298° |
| 2026-05-06 10:19 | 49.88060 | 9.91851 | 33508 ft | 479 kts | 298° |
| 2026-05-06 10:19 | 49.89927 | 9.87557 | 33799 ft | 481 kts | 298° |
| 2026-05-06 10:20 | 49.91774 | 9.83301 | 34045 ft | 484 kts | 298° |
| 2026-05-06 10:20 | 49.93656 | 9.78957 | 34316 ft | 485 kts | 298° |
| 2026-05-06 10:20 | 49.95540 | 9.74603 | 34659 ft | 485 kts | 298° |
| 2026-05-06 10:20 | 49.97417 | 9.70260 | 35016 ft | 485 kts | 298° |
| 2026-05-06 10:21 | 49.99295 | 9.65904 | 35367 ft | 484 kts | 298° |
| 2026-05-06 10:21 | 50.01165 | 9.61556 | 35709 ft | 484 kts | 299° |
| 2026-05-06 10:21 | 50.04875 | 9.52725 | 35767 ft | 484 kts | 295° |
| 2026-05-06 10:22 | 50.07582 | 9.43328 | 35773 ft | 477 kts | 284° |
| 2026-05-06 10:22 | 50.09364 | 9.33399 | 35766 ft | 476 kts | 281° |
| 2026-05-06 10:23 | 50.11136 | 9.23469 | 35766 ft | 476 kts | 281° |
| 2026-05-06 10:23 | 50.12888 | 9.13515 | 35755 ft | 477 kts | 282° |
| 2026-05-06 10:24 | 50.14624 | 9.03546 | 35756 ft | 477 kts | 282° |
| 2026-05-06 10:24 | 50.16342 | 8.93616 | 35766 ft | 477 kts | 281° |
| 2026-05-06 10:25 | 50.18059 | 8.83631 | 35769 ft | 478 kts | 281° |
| 2026-05-06 10:25 | 50.19773 | 8.73607 | 35771 ft | 478 kts | 281° |
| 2026-05-06 10:26 | 50.21478 | 8.63579 | 35767 ft | 478 kts | 281° |
| 2026-05-06 10:26 | 50.23174 | 8.53545 | 35766 ft | 478 kts | 281° |
| 2026-05-06 10:27 | 50.24849 | 8.43580 | 35776 ft | 478 kts | 281° |
| 2026-05-06 10:27 | 50.26526 | 8.33540 | 35780 ft | 478 kts | 281° |
| 2026-05-06 10:28 | 50.28198 | 8.23475 | 35765 ft | 479 kts | 281° |
| 2026-05-06 10:28 | 50.29862 | 8.13400 | 35756 ft | 479 kts | 281° |
| 2026-05-06 10:29 | 50.31521 | 8.03294 | 35755 ft | 480 kts | 281° |
| 2026-05-06 10:29 | 50.33158 | 7.93262 | 35761 ft | 480 kts | 281° |
| 2026-05-06 10:30 | 50.34801 | 7.83138 | 35764 ft | 481 kts | 281° |
| 2026-05-06 10:30 | 50.36437 | 7.72983 | 35770 ft | 482 kts | 281° |
| 2026-05-06 10:31 | 50.38068 | 7.62806 | 35771 ft | 482 kts | 281° |
| 2026-05-06 10:31 | 50.39681 | 7.52680 | 35782 ft | 482 kts | 281° |
| 2026-05-06 10:32 | 50.41295 | 7.42481 | 35784 ft | 482 kts | 281° |
| 2026-05-06 10:32 | 50.42904 | 7.32253 | 35766 ft | 484 kts | 281° |
| 2026-05-06 10:33 | 50.44507 | 7.21995 | 35777 ft | 484 kts | 281° |
| 2026-05-06 10:33 | 50.46098 | 7.11750 | 35778 ft | 485 kts | 281° |
| 2026-05-06 10:34 | 50.47675 | 7.01535 | 35789 ft | 485 kts | 281° |
| 2026-05-06 10:34 | 50.49255 | 6.91232 | 35781 ft | 486 kts | 281° |
| 2026-05-06 10:35 | 50.50906 | 6.80925 | 35781 ft | 488 kts | 286° |
| 2026-05-06 10:35 | 50.53352 | 6.70954 | 35777 ft | 489 kts | 289° |
| 2026-05-06 10:36 | 50.55804 | 6.61064 | 35782 ft | 489 kts | 289° |
| 2026-05-06 10:36 | 50.58256 | 6.51080 | 35799 ft | 489 kts | 289° |
| 2026-05-06 10:37 | 50.60692 | 6.41103 | 35796 ft | 490 kts | 288° |
| 2026-05-06 10:37 | 50.63125 | 6.31091 | 35806 ft | 490 kts | 288° |
| 2026-05-06 10:38 | 50.65532 | 6.21140 | 35808 ft | 489 kts | 288° |
| 2026-05-06 10:38 | 50.67946 | 6.11115 | 35820 ft | 489 kts | 288° |
| 2026-05-06 10:39 | 50.70348 | 6.01089 | 35827 ft | 489 kts | 288° |
| 2026-05-06 10:39 | 50.72740 | 5.91062 | 35849 ft | 488 kts | 288° |
| 2026-05-06 10:40 | 50.75116 | 5.81056 | 35856 ft | 487 kts | 288° |
| 2026-05-06 10:40 | 50.77488 | 5.71021 | 35862 ft | 488 kts | 288° |
| 2026-05-06 10:41 | 50.79834 | 5.61045 | 35864 ft | 487 kts | 289° |
| 2026-05-06 10:41 | 50.82188 | 5.50996 | 35843 ft | 488 kts | 289° |
| 2026-05-06 10:42 | 50.84539 | 5.40910 | 35851 ft | 489 kts | 288° |
| 2026-05-06 10:42 | 50.86865 | 5.30881 | 35853 ft | 489 kts | 288° |
| 2026-05-06 10:43 | 50.89199 | 5.20773 | 35863 ft | 490 kts | 288° |
| 2026-05-06 10:44 | 50.92688 | 5.05572 | 35877 ft | 490 kts | 288° |
| 2026-05-06 10:44 | 50.94997 | 4.95451 | 35876 ft | 490 kts | 288° |
| 2026-05-06 10:45 | 50.97288 | 4.85364 | 35868 ft | 489 kts | 288° |
| 2026-05-06 10:45 | 50.99586 | 4.75198 | 35871 ft | 489 kts | 288° |
| 2026-05-06 10:46 | 51.01873 | 4.65027 | 35889 ft | 489 kts | 288° |
| 2026-05-06 10:46 | 51.04147 | 4.54866 | 35893 ft | 488 kts | 288° |
| 2026-05-06 10:47 | 51.06399 | 4.44756 | 35887 ft | 488 kts | 288° |
| 2026-05-06 10:47 | 51.08651 | 4.34590 | 35882 ft | 488 kts | 288° |
| 2026-05-06 10:48 | 51.10898 | 4.24402 | 35884 ft | 488 kts | 288° |
| 2026-05-06 10:48 | 51.13134 | 4.14220 | 35876 ft | 487 kts | 288° |
| 2026-05-06 10:49 | 51.15360 | 4.04025 | 35870 ft | 487 kts | 288° |
| 2026-05-06 10:49 | 51.17562 | 3.93894 | 35864 ft | 487 kts | 287° |
| 2026-05-06 10:50 | 51.19768 | 3.83689 | 35852 ft | 487 kts | 288° |
| 2026-05-06 10:50 | 51.21969 | 3.73469 | 35864 ft | 487 kts | 287° |
| 2026-05-06 10:51 | 51.23969 | 3.63158 | 35864 ft | 486 kts | 281° |
| 2026-05-06 10:51 | 51.25332 | 3.52666 | 35881 ft | 486 kts | 281° |
| 2026-05-06 10:52 | 51.26751 | 3.42108 | 35889 ft | 486 kts | 280° |
| 2026-05-06 10:52 | 51.28134 | 3.31542 | 35910 ft | 486 kts | 280° |
| 2026-05-06 10:53 | 51.29488 | 3.20960 | 35939 ft | 486 kts | 280° |
| 2026-05-06 10:53 | 51.30830 | 3.10406 | 35951 ft | 484 kts | 279° |
| 2026-05-06 10:54 | 51.32148 | 2.99962 | 35956 ft | 482 kts | 280° |
| 2026-05-06 10:54 | 51.33465 | 2.89458 | 35919 ft | 481 kts | 279° |
| 2026-05-06 10:55 | 51.34768 | 2.78974 | 35915 ft | 480 kts | 279° |
| 2026-05-06 10:55 | 51.36061 | 2.68513 | 35888 ft | 480 kts | 280° |
| 2026-05-06 10:56 | 51.37340 | 2.58121 | 35900 ft | 479 kts | 280° |
| 2026-05-06 10:56 | 51.38617 | 2.47664 | 35907 ft | 479 kts | 280° |
| 2026-05-06 10:57 | 51.39885 | 2.37192 | 35912 ft | 479 kts | 279° |
| 2026-05-06 10:57 | 51.41145 | 2.26718 | 35956 ft | 479 kts | 279° |
| 2026-05-06 10:58 | 51.42407 | 2.16330 | 35941 ft | 479 kts | 279° |
| 2026-05-06 10:58 | 51.43689 | 2.05835 | 35949 ft | 480 kts | 279° |
| 2026-05-06 10:59 | 51.44953 | 1.95337 | 35954 ft | 480 kts | 279° |
| 2026-05-06 10:59 | 51.46185 | 1.84827 | 35940 ft | 480 kts | 279° |
| 2026-05-06 11:00 | 51.47391 | 1.74392 | 35952 ft | 479 kts | 279° |
| 2026-05-06 11:00 | 51.48596 | 1.63885 | 35950 ft | 479 kts | 279° |
| 2026-05-06 11:01 | 51.49792 | 1.53376 | 35948 ft | 479 kts | 279° |
| 2026-05-06 11:01 | 51.50980 | 1.42873 | 35970 ft | 478 kts | 279° |
| 2026-05-06 11:02 | 51.52157 | 1.32362 | 35963 ft | 478 kts | 279° |
| 2026-05-06 11:02 | 51.53318 | 1.21917 | 35963 ft | 478 kts | 279° |
| 2026-05-06 11:03 | 51.54387 | 1.11385 | 35960 ft | 477 kts | 274° |
| 2026-05-06 11:03 | 51.55045 | 1.00764 | 35955 ft | 478 kts | 275° |
| 2026-05-06 11:04 | 51.55721 | 0.90220 | 35986 ft | 477 kts | 275° |
| 2026-05-06 11:04 | 51.56387 | 0.79623 | 35985 ft | 476 kts | 275° |
| 2026-05-06 11:05 | 51.57041 | 0.69028 | 35970 ft | 476 kts | 275° |
| 2026-05-06 11:05 | 51.57684 | 0.58438 | 35954 ft | 476 kts | 275° |
| 2026-05-06 11:06 | 51.58315 | 0.47875 | 35969 ft | 475 kts | 275° |
| 2026-05-06 11:06 | 51.58933 | 0.37384 | 35967 ft | 474 kts | 275° |
| 2026-05-06 11:07 | 51.59545 | 0.26832 | 35987 ft | 474 kts | 275° |
| 2026-05-06 11:07 | 51.60146 | 0.16302 | 36012 ft | 472 kts | 275° |
| 2026-05-06 11:08 | 51.60735 | 0.05803 | 35982 ft | 473 kts | 275° |
| 2026-05-06 11:08 | 51.61313 | -0.04652 | 35990 ft | 473 kts | 274° |
| 2026-05-06 11:09 | 51.61893 | -0.15189 | 36010 ft | 472 kts | 275° |
| 2026-05-06 11:09 | 51.62547 | -0.25717 | 36027 ft | 473 kts | 275° |
| 2026-05-06 11:10 | 51.63201 | -0.36250 | 35996 ft | 473 kts | 275° |
| 2026-05-06 11:10 | 51.63834 | -0.46791 | 35981 ft | 474 kts | 275° |
| 2026-05-06 11:11 | 51.64457 | -0.57344 | 36020 ft | 473 kts | 275° |
| 2026-05-06 11:11 | 51.65065 | -0.67825 | 35973 ft | 474 kts | 275° |
| 2026-05-06 11:12 | 51.65669 | -0.78386 | 35992 ft | 474 kts | 275° |
| 2026-05-06 11:12 | 51.66263 | -0.88952 | 36008 ft | 473 kts | 275° |
| 2026-05-06 11:13 | 51.66847 | -0.99515 | 36004 ft | 474 kts | 275° |
| 2026-05-06 11:13 | 51.67418 | -1.10006 | 35998 ft | 473 kts | 274° |
| 2026-05-06 11:14 | 51.67983 | -1.20569 | 35985 ft | 474 kts | 274° |
| 2026-05-06 11:14 | 51.68539 | -1.31137 | 36011 ft | 473 kts | 274° |
| 2026-05-06 11:15 | 51.69084 | -1.41691 | 36005 ft | 473 kts | 274° |
| 2026-05-06 11:15 | 51.69617 | -1.52184 | 36023 ft | 473 kts | 274° |
| 2026-05-06 11:16 | 51.70201 | -1.62741 | 36017 ft | 473 kts | 278° |
| 2026-05-06 11:16 | 51.71912 | -1.72966 | 36025 ft | 474 kts | 291° |
| 2026-05-06 11:17 | 51.74780 | -1.82537 | 36020 ft | 475 kts | 295° |
| 2026-05-06 11:17 | 51.77731 | -1.92091 | 36041 ft | 475 kts | 295° |
| 2026-05-06 11:18 | 51.80670 | -2.01650 | 36058 ft | 475 kts | 296° |
| 2026-05-06 11:18 | 51.84076 | -2.10738 | 36057 ft | 476 kts | 300° |
| 2026-05-06 11:19 | 51.87567 | -2.19821 | 36054 ft | 475 kts | 300° |
| 2026-05-06 11:19 | 51.91052 | -2.28915 | 36050 ft | 475 kts | 300° |
| 2026-05-06 11:20 | 51.94523 | -2.38004 | 36046 ft | 474 kts | 300° |
| 2026-05-06 11:20 | 51.97987 | -2.47106 | 36049 ft | 474 kts | 300° |
| 2026-05-06 11:21 | 52.01418 | -2.56154 | 36037 ft | 474 kts | 300° |
| 2026-05-06 11:21 | 52.04865 | -2.65277 | 36031 ft | 473 kts | 300° |
| 2026-05-06 11:22 | 52.08291 | -2.74376 | 36030 ft | 473 kts | 300° |
| 2026-05-06 11:22 | 52.11719 | -2.83516 | 36026 ft | 472 kts | 300° |
| 2026-05-06 11:23 | 52.15107 | -2.92580 | 36026 ft | 472 kts | 300° |
| 2026-05-06 11:23 | 52.18513 | -3.01723 | 36035 ft | 472 kts | 300° |
| 2026-05-06 11:24 | 52.21907 | -3.10869 | 36032 ft | 471 kts | 300° |
| 2026-05-06 11:24 | 52.25290 | -3.20018 | 36049 ft | 471 kts | 299° |
| 2026-05-06 11:25 | 52.28643 | -3.29118 | 36037 ft | 471 kts | 299° |
| 2026-05-06 11:25 | 52.32010 | -3.38291 | 36036 ft | 470 kts | 299° |
| 2026-05-06 11:26 | 52.35367 | -3.47469 | 36034 ft | 470 kts | 299° |
| 2026-05-06 11:26 | 52.38715 | -3.56655 | 36036 ft | 470 kts | 299° |
| 2026-05-06 11:27 | 52.42054 | -3.65851 | 36033 ft | 469 kts | 299° |
| 2026-05-06 11:27 | 52.45361 | -3.74988 | 36033 ft | 469 kts | 299° |
| 2026-05-06 11:28 | 52.48682 | -3.84203 | 36033 ft | 469 kts | 299° |
| 2026-05-06 11:28 | 52.51996 | -3.93432 | 36032 ft | 469 kts | 299° |
| 2026-05-06 11:29 | 52.55303 | -4.02673 | 36033 ft | 469 kts | 299° |
| 2026-05-06 11:29 | 52.58576 | -4.11854 | 36030 ft | 469 kts | 299° |
| 2026-05-06 11:30 | 52.61864 | -4.21108 | 36033 ft | 468 kts | 299° |
| 2026-05-06 11:30 | 52.65137 | -4.30356 | 36032 ft | 468 kts | 298° |
| 2026-05-06 11:31 | 52.68407 | -4.39631 | 36043 ft | 468 kts | 298° |
| 2026-05-06 11:31 | 52.71652 | -4.48867 | 36034 ft | 468 kts | 298° |
| 2026-05-06 11:32 | 52.74908 | -4.58172 | 36032 ft | 468 kts | 298° |
| 2026-05-06 11:32 | 52.78156 | -4.67485 | 36036 ft | 468 kts | 298° |
| 2026-05-06 11:33 | 52.81401 | -4.76827 | 36037 ft | 469 kts | 298° |
| 2026-05-06 11:33 | 52.84639 | -4.86183 | 36039 ft | 469 kts | 298° |
| 2026-05-06 11:34 | 52.87847 | -4.95487 | 36038 ft | 469 kts | 298° |
| 2026-05-06 11:34 | 52.91070 | -5.04872 | 36042 ft | 469 kts | 298° |
| 2026-05-06 11:35 | 52.94286 | -5.14270 | 36035 ft | 469 kts | 298° |
| 2026-05-06 11:35 | 52.97496 | -5.23686 | 36037 ft | 469 kts | 298° |
| 2026-05-06 11:36 | 53.00678 | -5.33055 | 36039 ft | 469 kts | 298° |
| 2026-05-06 11:36 | 53.03877 | -5.42502 | 36039 ft | 469 kts | 298° |
| 2026-05-06 11:37 | 53.07070 | -5.51950 | 36032 ft | 469 kts | 298° |
| 2026-05-06 11:37 | 53.10293 | -5.61387 | 36034 ft | 469 kts | 299° |
| 2026-05-06 11:38 | 53.13498 | -5.70766 | 36032 ft | 469 kts | 299° |
| 2026-05-06 11:38 | 53.16709 | -5.80212 | 36015 ft | 469 kts | 298° |
| 2026-05-06 11:39 | 53.19915 | -5.89686 | 36014 ft | 469 kts | 298° |
| 2026-05-06 11:39 | 53.23109 | -5.99159 | 36010 ft | 469 kts | 298° |
| 2026-05-06 11:40 | 53.26293 | -6.08639 | 36028 ft | 469 kts | 298° |
| 2026-05-06 11:40 | 53.29469 | -6.18067 | 36020 ft | 468 kts | 299° |
| 2026-05-06 11:41 | 53.32680 | -6.27518 | 36016 ft | 469 kts | 299° |
| 2026-05-06 11:41 | 53.35888 | -6.37010 | 36019 ft | 469 kts | 299° |
| 2026-05-06 11:42 | 53.38547 | -6.44916 | 36022 ft | 469 kts | 299° |
| 2026-05-06 11:42 | 53.41739 | -6.54447 | 36019 ft | 469 kts | 299° |
| 2026-05-06 11:43 | 53.45439 | -6.65538 | 36015 ft | 469 kts | 298° |
| 2026-05-06 11:43 | 53.48099 | -6.73548 | 36007 ft | 469 kts | 299° |
| 2026-05-06 11:44 | 53.52832 | -6.87855 | 36016 ft | 469 kts | 299° |
| 2026-05-06 11:44 | 53.55988 | -6.97445 | 36023 ft | 469 kts | 299° |
| 2026-05-06 11:45 | 53.59138 | -7.07052 | 36020 ft | 469 kts | 299° |
| 2026-05-06 11:45 | 53.62256 | -7.16597 | 36018 ft | 468 kts | 299° |
| 2026-05-06 11:46 | 53.65385 | -7.26219 | 36013 ft | 468 kts | 298° |
| 2026-05-06 11:46 | 53.68505 | -7.35848 | 36008 ft | 468 kts | 299° |
| 2026-05-06 11:47 | 53.71616 | -7.45487 | 36009 ft | 468 kts | 299° |
| 2026-05-06 11:47 | 53.74698 | -7.55076 | 36010 ft | 468 kts | 299° |
| 2026-05-06 11:48 | 53.77793 | -7.64744 | 36019 ft | 468 kts | 299° |
| 2026-05-06 11:48 | 53.80880 | -7.74424 | 36018 ft | 467 kts | 299° |
| 2026-05-06 11:49 | 53.83955 | -7.84106 | 36012 ft | 467 kts | 299° |
| 2026-05-06 11:49 | 53.87016 | -7.93784 | 36011 ft | 466 kts | 299° |
| 2026-05-06 11:50 | 53.90048 | -8.03405 | 36010 ft | 466 kts | 299° |
| 2026-05-06 11:50 | 53.93093 | -8.13108 | 36010 ft | 466 kts | 299° |
| 2026-05-06 11:51 | 53.96129 | -8.22815 | 36006 ft | 466 kts | 299° |
| 2026-05-06 11:51 | 53.99203 | -8.32390 | 36025 ft | 464 kts | 301° |
| 2026-05-06 11:52 | 54.02490 | -8.41821 | 36020 ft | 463 kts | 302° |
| 2026-05-06 11:52 | 54.05721 | -8.51142 | 36023 ft | 462 kts | 302° |
| 2026-05-06 11:53 | 54.08957 | -8.60582 | 36020 ft | 461 kts | 302° |
| 2026-05-06 11:53 | 54.12176 | -8.70036 | 36015 ft | 461 kts | 301° |
| 2026-05-06 11:54 | 54.15378 | -8.79489 | 36031 ft | 460 kts | 301° |
| 2026-05-06 11:54 | 54.18544 | -8.88878 | 36044 ft | 460 kts | 301° |
| 2026-05-06 11:55 | 54.21725 | -8.98346 | 36034 ft | 459 kts | 301° |
| 2026-05-06 11:55 | 54.24897 | -9.07827 | 36019 ft | 459 kts | 301° |
| 2026-05-06 11:56 | 54.28053 | -9.17292 | 36019 ft | 458 kts | 301° |
| 2026-05-06 11:56 | 54.31182 | -9.26716 | 36020 ft | 458 kts | 301° |
| 2026-05-06 11:57 | 54.34339 | -9.36258 | 36468 ft | 461 kts | 301° |
| 2026-05-06 11:57 | 54.35918 | -9.41046 | 36795 ft | 462 kts | 301° |
| 2026-05-06 11:57 | 54.37497 | -9.45844 | 37136 ft | 462 kts | 300° |
| 2026-05-06 11:58 | 54.39074 | -9.50646 | 37519 ft | 461 kts | 300° |
| 2026-05-06 11:58 | 54.40646 | -9.55442 | 37876 ft | 461 kts | 300° |
| 2026-05-06 11:58 | 54.42222 | -9.60258 | 38035 ft | 465 kts | 300° |
| 2026-05-06 11:58 | 54.43782 | -9.65035 | 38032 ft | 461 kts | 300° |
| 2026-05-06 11:59 | 54.46890 | -9.74582 | 38046 ft | 459 kts | 300° |
| 2026-05-06 11:59 | 54.50003 | -9.84180 | 38044 ft | 459 kts | 300° |
| 2026-05-06 12:00 | 54.53106 | -9.93788 | 38052 ft | 459 kts | 300° |
| 2026-05-06 12:00 | 54.56201 | -10.03409 | 38054 ft | 459 kts | 300° |
| 2026-05-06 12:01 | 54.59267 | -10.12974 | 38071 ft | 459 kts | 299° |
| 2026-05-06 12:01 | 54.62350 | -10.22634 | 38058 ft | 461 kts | 299° |
| 2026-05-06 12:02 | 54.65439 | -10.32351 | 38049 ft | 452 kts | 299° |
| 2026-05-06 12:02 | 54.66926 | -10.37043 | 38047 ft | 438 kts | 299° |
| 2026-05-06 12:02 | 54.68364 | -10.41591 | 38048 ft | 428 kts | 299° |
| 2026-05-06 12:03 | 54.71232 | -10.50680 | 38046 ft | 440 kts | 299° |
| 2026-05-06 12:03 | 54.74199 | -10.60119 | 38046 ft | 453 kts | 299° |
| 2026-05-06 12:04 | 54.77230 | -10.69803 | 38045 ft | 456 kts | 299° |
| 2026-05-06 12:04 | 54.80233 | -10.79439 | 38039 ft | 454 kts | 299° |
| 2026-05-06 12:05 | 54.83210 | -10.89028 | 38043 ft | 455 kts | 298° |
| 2026-05-06 12:05 | 54.86198 | -10.98691 | 38042 ft | 454 kts | 298° |
| 2026-05-06 12:06 | 54.89170 | -11.08341 | 38033 ft | 453 kts | 298° |
| 2026-05-06 12:06 | 54.92129 | -11.17989 | 38028 ft | 452 kts | 298° |
| 2026-05-06 12:07 | 54.95060 | -11.27582 | 38021 ft | 452 kts | 298° |
| 2026-05-06 12:07 | 54.97999 | -11.37241 | 38021 ft | 452 kts | 298° |
| 2026-05-06 12:08 | 55.00936 | -11.46934 | 38033 ft | 452 kts | 298° |
| 2026-05-06 12:08 | 55.03864 | -11.56635 | 38031 ft | 452 kts | 298° |
| 2026-05-06 12:09 | 55.06764 | -11.66285 | 38032 ft | 452 kts | 298° |
| 2026-05-06 12:09 | 55.09676 | -11.76013 | 38026 ft | 452 kts | 298° |
| 2026-05-06 12:10 | 55.12580 | -11.85757 | 38025 ft | 452 kts | 298° |
| 2026-05-06 12:10 | 55.15476 | -11.95512 | 38021 ft | 452 kts | 297° |
| 2026-05-06 12:11 | 55.18367 | -12.05291 | 38019 ft | 452 kts | 297° |
| 2026-05-06 12:11 | 55.21229 | -12.15012 | 38020 ft | 452 kts | 297° |
| 2026-05-06 12:12 | 55.24100 | -12.24803 | 38013 ft | 452 kts | 297° |
| 2026-05-06 12:12 | 55.26965 | -12.34616 | 38012 ft | 452 kts | 297° |
| 2026-05-06 12:13 | 55.29818 | -12.44429 | 38010 ft | 452 kts | 297° |
| 2026-05-06 12:13 | 55.32648 | -12.54202 | 38012 ft | 452 kts | 297° |
| 2026-05-06 12:14 | 55.35491 | -12.64063 | 38011 ft | 452 kts | 297° |
| 2026-05-06 12:14 | 55.38326 | -12.73939 | 38008 ft | 452 kts | 297° |
| 2026-05-06 12:15 | 55.41153 | -12.83827 | 38007 ft | 452 kts | 297° |
| 2026-05-06 12:15 | 55.43950 | -12.93654 | 38000 ft | 452 kts | 296° |
| 2026-05-06 12:16 | 55.46762 | -13.03575 | 37999 ft | 453 kts | 296° |
| 2026-05-06 12:16 | 55.49568 | -13.13515 | 38001 ft | 453 kts | 296° |
| 2026-05-06 12:17 | 55.52367 | -13.23475 | 38001 ft | 453 kts | 296° |
| 2026-05-06 12:17 | 55.55156 | -13.33441 | 38006 ft | 453 kts | 296° |
| 2026-05-06 12:18 | 55.57920 | -13.43362 | 37994 ft | 454 kts | 296° |
| 2026-05-06 12:18 | 55.60700 | -13.53382 | 37994 ft | 453 kts | 296° |
| 2026-05-06 12:19 | 55.63466 | -13.63397 | 38001 ft | 453 kts | 296° |
| 2026-05-06 12:19 | 55.66227 | -13.73436 | 37994 ft | 453 kts | 296° |
| 2026-05-06 12:20 | 55.68956 | -13.83406 | 37993 ft | 453 kts | 296° |
| 2026-05-06 12:20 | 55.71696 | -13.93456 | 37993 ft | 453 kts | 296° |
| 2026-05-06 12:21 | 55.74427 | -14.03516 | 37991 ft | 453 kts | 295° |
| 2026-05-06 12:21 | 55.77150 | -14.13593 | 38002 ft | 453 kts | 295° |
| 2026-05-06 12:22 | 55.79862 | -14.23676 | 37991 ft | 452 kts | 295° |
| 2026-05-06 12:22 | 55.82545 | -14.33694 | 37985 ft | 452 kts | 295° |
| 2026-05-06 12:23 | 55.85243 | -14.43811 | 37987 ft | 452 kts | 295° |
| 2026-05-06 12:23 | 55.87930 | -14.53931 | 37980 ft | 452 kts | 295° |
| 2026-05-06 12:24 | 55.90608 | -14.64067 | 37982 ft | 452 kts | 295° |
| 2026-05-06 12:24 | 55.93263 | -14.74152 | 37984 ft | 452 kts | 295° |
| 2026-05-06 12:25 | 55.95934 | -14.84317 | 37980 ft | 453 kts | 295° |
| 2026-05-06 12:25 | 55.98561 | -14.94514 | 37975 ft | 452 kts | 292° |
| 2026-05-06 12:26 | 56.00576 | -15.05151 | 37976 ft | 452 kts | 285° |
| 2026-05-06 12:26 | 56.01898 | -15.16052 | 37970 ft | 452 kts | 283° |
| 2026-05-06 12:27 | 56.03240 | -15.27031 | 37968 ft | 452 kts | 283° |
| 2026-05-06 12:27 | 56.04566 | -15.38026 | 37970 ft | 452 kts | 283° |
| 2026-05-06 12:28 | 56.05867 | -15.49037 | 37966 ft | 452 kts | 283° |
| 2026-05-06 12:28 | 56.07154 | -15.60053 | 37968 ft | 452 kts | 283° |
| 2026-05-06 12:29 | 56.08422 | -15.70997 | 37967 ft | 452 kts | 282° |
| 2026-05-06 12:29 | 56.09689 | -15.82022 | 37984 ft | 452 kts | 282° |
| 2026-05-06 12:30 | 56.10945 | -15.93036 | 37979 ft | 451 kts | 282° |
| 2026-05-06 12:30 | 56.12186 | -16.04023 | 37965 ft | 450 kts | 282° |
| 2026-05-06 12:31 | 56.13409 | -16.14933 | 37956 ft | 449 kts | 282° |
| 2026-05-06 12:31 | 56.14628 | -16.25908 | 37951 ft | 449 kts | 282° |
| 2026-05-06 12:32 | 56.15835 | -16.36867 | 37946 ft | 449 kts | 282° |
| 2026-05-06 12:32 | 56.17035 | -16.47854 | 37941 ft | 449 kts | 282° |
| 2026-05-06 12:33 | 56.18226 | -16.58852 | 37942 ft | 449 kts | 282° |
| 2026-05-06 12:33 | 56.19399 | -16.69789 | 37944 ft | 449 kts | 282° |
| 2026-05-06 12:34 | 56.20571 | -16.80811 | 37922 ft | 450 kts | 281° |
| 2026-05-06 12:34 | 56.21734 | -16.91846 | 37938 ft | 450 kts | 281° |
| 2026-05-06 12:35 | 56.22888 | -17.02900 | 37946 ft | 450 kts | 281° |
| 2026-05-06 12:35 | 56.24026 | -17.13896 | 37948 ft | 450 kts | 281° |
| 2026-05-06 12:36 | 56.25161 | -17.24969 | 37945 ft | 450 kts | 281° |
| 2026-05-06 12:36 | 56.26287 | -17.36049 | 37943 ft | 450 kts | 281° |
| 2026-05-06 12:37 | 56.27400 | -17.47107 | 37922 ft | 449 kts | 281° |
| 2026-05-06 12:37 | 56.28495 | -17.58101 | 37930 ft | 449 kts | 281° |
| 2026-05-06 12:38 | 56.29588 | -17.69173 | 37928 ft | 449 kts | 281° |
| 2026-05-06 12:38 | 56.30671 | -17.80247 | 37929 ft | 449 kts | 280° |
| 2026-05-06 12:39 | 56.31744 | -17.91326 | 37919 ft | 450 kts | 280° |
| 2026-05-06 12:39 | 56.32800 | -18.02343 | 37919 ft | 450 kts | 280° |
| 2026-05-06 12:40 | 56.33855 | -18.13454 | 37931 ft | 450 kts | 280° |
| 2026-05-06 12:40 | 56.34900 | -18.24565 | 37929 ft | 449 kts | 280° |
| 2026-05-06 12:41 | 56.35933 | -18.35673 | 37921 ft | 449 kts | 280° |
| 2026-05-06 12:41 | 56.36956 | -18.46780 | 37914 ft | 449 kts | 280° |
| 2026-05-06 12:42 | 56.37962 | -18.57811 | 37915 ft | 449 kts | 279° |
| 2026-05-06 12:42 | 56.38965 | -18.68922 | 37913 ft | 449 kts | 279° |
| 2026-05-06 12:43 | 56.39957 | -18.80039 | 37899 ft | 449 kts | 279° |
| 2026-05-06 12:43 | 56.40941 | -18.91170 | 37905 ft | 449 kts | 279° |
| 2026-05-06 12:44 | 56.41916 | -19.02332 | 37913 ft | 450 kts | 279° |
| 2026-05-06 12:44 | 56.42875 | -19.13415 | 37918 ft | 450 kts | 279° |
| 2026-05-06 12:45 | 56.43832 | -19.24608 | 37918 ft | 451 kts | 279° |
| 2026-05-06 12:46 | 56.45248 | -19.41392 | 37918 ft | 450 kts | 279° |
| 2026-05-06 12:46 | 56.46173 | -19.52512 | 37919 ft | 450 kts | 279° |
| 2026-05-06 12:47 | 56.47093 | -19.63700 | 37920 ft | 450 kts | 278° |
| 2026-05-06 12:47 | 56.48003 | -19.74901 | 37914 ft | 450 kts | 278° |
| 2026-05-06 12:48 | 56.48898 | -19.86004 | 37919 ft | 450 kts | 278° |
| 2026-05-06 12:48 | 56.49797 | -19.97221 | 37917 ft | 450 kts | 278° |
| 2026-05-06 12:49 | 56.50963 | -20.08317 | 37918 ft | 449 kts | 284° |
| 2026-05-06 12:49 | 56.52643 | -20.19227 | 37920 ft | 450 kts | 285° |
| 2026-05-06 12:50 | 56.54263 | -20.30182 | 37938 ft | 450 kts | 284° |
| 2026-05-06 12:50 | 56.55814 | -20.41107 | 37938 ft | 450 kts | 284° |
| 2026-05-06 12:51 | 56.57356 | -20.52117 | 37936 ft | 450 kts | 284° |
| 2026-05-06 12:51 | 56.58885 | -20.63133 | 37940 ft | 450 kts | 284° |
| 2026-05-06 12:52 | 56.60399 | -20.74153 | 37910 ft | 450 kts | 283° |
| 2026-05-06 12:52 | 56.61893 | -20.85115 | 37921 ft | 450 kts | 283° |
| 2026-05-06 12:53 | 56.63387 | -20.96160 | 37936 ft | 451 kts | 283° |
| 2026-05-06 12:53 | 56.64876 | -21.07242 | 37938 ft | 452 kts | 283° |
| 2026-05-06 12:54 | 56.66356 | -21.18344 | 37951 ft | 452 kts | 283° |
| 2026-05-06 12:54 | 56.67827 | -21.29464 | 37955 ft | 453 kts | 283° |
| 2026-05-06 12:55 | 56.69280 | -21.40527 | 37956 ft | 452 kts | 283° |
| 2026-05-06 12:55 | 56.70731 | -21.51662 | 37943 ft | 452 kts | 283° |
| 2026-05-06 12:56 | 56.72173 | -21.62813 | 37944 ft | 453 kts | 283° |
| 2026-05-06 12:56 | 56.73607 | -21.73983 | 37958 ft | 453 kts | 283° |
| 2026-05-06 12:57 | 56.75024 | -21.85110 | 37962 ft | 454 kts | 283° |
| 2026-05-06 12:57 | 56.76439 | -21.96308 | 37961 ft | 454 kts | 282° |
| 2026-05-06 12:58 | 56.77847 | -22.07539 | 37968 ft | 454 kts | 282° |
| 2026-05-06 12:58 | 56.79245 | -22.18774 | 37958 ft | 454 kts | 282° |
| 2026-05-06 12:59 | 56.80633 | -22.30027 | 37967 ft | 455 kts | 282° |
| 2026-05-06 12:59 | 56.82004 | -22.41227 | 37971 ft | 455 kts | 282° |
| 2026-05-06 13:00 | 56.83374 | -22.52504 | 37974 ft | 455 kts | 282° |
| 2026-05-06 13:00 | 56.84734 | -22.63799 | 37984 ft | 456 kts | 282° |
| 2026-05-06 13:01 | 56.86085 | -22.75113 | 37983 ft | 456 kts | 282° |
| 2026-05-06 13:01 | 56.87416 | -22.86346 | 37965 ft | 456 kts | 282° |
| 2026-05-06 13:02 | 56.88747 | -22.97679 | 37975 ft | 456 kts | 282° |
| 2026-05-06 13:02 | 56.90073 | -23.09057 | 37985 ft | 457 kts | 282° |
| 2026-05-06 13:03 | 56.91387 | -23.20441 | 37997 ft | 458 kts | 281° |
| 2026-05-06 13:03 | 56.92684 | -23.31766 | 37996 ft | 458 kts | 281° |
| 2026-05-06 13:04 | 56.93980 | -23.43179 | 38003 ft | 458 kts | 281° |
| 2026-05-06 13:04 | 56.95265 | -23.54600 | 38005 ft | 458 kts | 281° |
| 2026-05-06 13:05 | 56.96538 | -23.66016 | 37992 ft | 458 kts | 281° |
| 2026-05-06 13:05 | 56.97804 | -23.77464 | 38003 ft | 459 kts | 281° |
| 2026-05-06 13:06 | 56.99052 | -23.88855 | 38008 ft | 459 kts | 281° |
| 2026-05-06 13:06 | 57.00300 | -24.00342 | 38034 ft | 459 kts | 281° |
| 2026-05-06 13:07 | 57.01537 | -24.11847 | 38023 ft | 460 kts | 281° |
| 2026-05-06 13:07 | 57.02765 | -24.23359 | 38022 ft | 460 kts | 281° |
| 2026-05-06 13:08 | 57.03974 | -24.34803 | 38022 ft | 459 kts | 281° |
| 2026-05-06 13:08 | 57.05180 | -24.46331 | 38021 ft | 460 kts | 280° |
| 2026-05-06 13:09 | 57.06376 | -24.57869 | 38028 ft | 460 kts | 280° |
| 2026-05-06 13:09 | 57.07563 | -24.69430 | 38028 ft | 461 kts | 280° |
| 2026-05-06 13:10 | 57.08740 | -24.81012 | 38030 ft | 461 kts | 280° |
| 2026-05-06 13:10 | 57.09900 | -24.92521 | 38036 ft | 461 kts | 280° |
| 2026-05-06 13:11 | 57.11056 | -25.04121 | 38036 ft | 461 kts | 280° |
| 2026-05-06 13:11 | 57.12202 | -25.15722 | 38047 ft | 461 kts | 280° |
| 2026-05-06 13:12 | 57.13329 | -25.27252 | 38045 ft | 460 kts | 280° |
| 2026-05-06 13:12 | 57.14451 | -25.38854 | 38041 ft | 460 kts | 280° |
| 2026-05-06 13:13 | 57.15562 | -25.50444 | 38050 ft | 460 kts | 279° |
| 2026-05-06 13:13 | 57.16662 | -25.62049 | 38051 ft | 460 kts | 279° |
| 2026-05-06 13:14 | 57.17752 | -25.73665 | 38043 ft | 460 kts | 279° |
| 2026-05-06 13:14 | 57.18825 | -25.85218 | 38046 ft | 461 kts | 279° |
| 2026-05-06 13:15 | 57.19896 | -25.96874 | 38059 ft | 461 kts | 279° |
| 2026-05-06 13:15 | 57.20958 | -26.08563 | 38074 ft | 462 kts | 279° |
| 2026-05-06 13:16 | 57.22010 | -26.20256 | 38078 ft | 462 kts | 279° |
| 2026-05-06 13:16 | 57.23045 | -26.31894 | 38085 ft | 463 kts | 279° |
| 2026-05-06 13:17 | 57.24076 | -26.43617 | 38089 ft | 463 kts | 279° |
| 2026-05-06 13:17 | 57.25097 | -26.55359 | 38072 ft | 464 kts | 279° |
| 2026-05-06 13:18 | 57.26109 | -26.67124 | 38088 ft | 464 kts | 279° |
| 2026-05-06 13:18 | 57.27112 | -26.78918 | 38090 ft | 465 kts | 279° |
| 2026-05-06 13:19 | 57.28104 | -26.90727 | 38107 ft | 465 kts | 279° |
| 2026-05-06 13:19 | 57.29079 | -27.02465 | 38109 ft | 465 kts | 278° |
| 2026-05-06 13:20 | 57.30048 | -27.14266 | 38109 ft | 465 kts | 278° |
| 2026-05-06 13:20 | 57.31006 | -27.26074 | 38096 ft | 465 kts | 278° |
| 2026-05-06 13:21 | 57.31954 | -27.37908 | 38098 ft | 466 kts | 278° |
| 2026-05-06 13:21 | 57.32886 | -27.49684 | 38115 ft | 466 kts | 278° |
| 2026-05-06 13:22 | 57.33815 | -27.61568 | 38114 ft | 467 kts | 278° |
| 2026-05-06 13:22 | 57.34734 | -27.73470 | 38115 ft | 467 kts | 278° |
| 2026-05-06 13:23 | 57.35641 | -27.85385 | 38137 ft | 468 kts | 278° |
| 2026-05-06 13:23 | 57.36533 | -27.97235 | 38120 ft | 467 kts | 278° |
| 2026-05-06 13:24 | 57.37418 | -28.09155 | 38134 ft | 467 kts | 278° |
| 2026-05-06 13:24 | 57.38293 | -28.21100 | 38136 ft | 468 kts | 278° |
| 2026-05-06 13:25 | 57.39157 | -28.33049 | 38125 ft | 468 kts | 278° |
| 2026-05-06 13:25 | 57.40010 | -28.45018 | 38136 ft | 469 kts | 278° |
| 2026-05-06 13:26 | 57.40846 | -28.56904 | 38145 ft | 469 kts | 277° |
| 2026-05-06 13:26 | 57.41678 | -28.68893 | 38134 ft | 469 kts | 277° |
| 2026-05-06 13:27 | 57.42498 | -28.80903 | 38166 ft | 469 kts | 277° |
| 2026-05-06 13:27 | 57.43308 | -28.92916 | 38152 ft | 469 kts | 277° |
| 2026-05-06 13:28 | 57.44107 | -29.04949 | 38156 ft | 470 kts | 277° |
| 2026-05-06 13:28 | 57.44890 | -29.16911 | 38148 ft | 470 kts | 277° |
| 2026-05-06 13:29 | 57.45664 | -29.28929 | 38161 ft | 470 kts | 277° |
| 2026-05-06 13:29 | 57.46430 | -29.40999 | 38170 ft | 470 kts | 277° |
| 2026-05-06 13:30 | 57.47184 | -29.53064 | 38157 ft | 470 kts | 277° |
| 2026-05-06 13:30 | 57.47933 | -29.65146 | 38162 ft | 471 kts | 277° |
| 2026-05-06 13:31 | 57.48671 | -29.77172 | 38184 ft | 471 kts | 277° |
| 2026-05-06 13:31 | 57.49404 | -29.89281 | 38184 ft | 471 kts | 277° |
| 2026-05-06 13:32 | 57.50125 | -30.01394 | 38186 ft | 472 kts | 277° |
| 2026-05-06 13:32 | 57.51616 | -30.13229 | 38189 ft | 470 kts | 287° |
| 2026-05-06 13:33 | 57.53438 | -30.24818 | 38135 ft | 471 kts | 286° |
| 2026-05-06 13:33 | 57.55152 | -30.36577 | 38171 ft | 471 kts | 285° |
| 2026-05-06 13:34 | 57.56813 | -30.48407 | 38187 ft | 472 kts | 285° |
| 2026-05-06 13:34 | 57.58460 | -30.60277 | 38193 ft | 473 kts | 285° |
| 2026-05-06 13:35 | 57.60078 | -30.72065 | 38204 ft | 473 kts | 285° |
| 2026-05-06 13:35 | 57.61694 | -30.83947 | 38213 ft | 472 kts | 285° |
| 2026-05-06 13:36 | 57.63299 | -30.95844 | 38190 ft | 473 kts | 284° |
| 2026-05-06 13:36 | 57.64891 | -31.07738 | 38166 ft | 473 kts | 285° |
| 2026-05-06 13:37 | 57.66469 | -31.19616 | 38213 ft | 471 kts | 285° |
| 2026-05-06 13:37 | 57.68026 | -31.31435 | 38222 ft | 471 kts | 284° |
| 2026-05-06 13:38 | 57.69586 | -31.43366 | 38185 ft | 473 kts | 284° |
| 2026-05-06 13:38 | 57.71136 | -31.55319 | 38183 ft | 474 kts | 284° |
| 2026-05-06 13:39 | 57.72675 | -31.67286 | 38236 ft | 473 kts | 284° |
| 2026-05-06 13:39 | 57.74194 | -31.79186 | 38229 ft | 473 kts | 284° |
| 2026-05-06 13:40 | 57.75714 | -31.91200 | 38191 ft | 475 kts | 284° |
| 2026-05-06 13:40 | 57.77226 | -32.03251 | 38182 ft | 476 kts | 284° |
| 2026-05-06 13:41 | 57.78727 | -32.15313 | 38203 ft | 476 kts | 284° |
| 2026-05-06 13:41 | 57.80207 | -32.27305 | 38224 ft | 476 kts | 284° |
| 2026-05-06 13:42 | 57.81688 | -32.39418 | 38201 ft | 477 kts | 284° |
| 2026-05-06 13:42 | 57.83158 | -32.51543 | 38251 ft | 476 kts | 284° |
| 2026-05-06 13:43 | 57.84614 | -32.63651 | 38206 ft | 476 kts | 284° |
| 2026-05-06 13:43 | 57.86058 | -32.75763 | 38186 ft | 476 kts | 283° |
| 2026-05-06 13:44 | 57.87480 | -32.87808 | 38262 ft | 475 kts | 284° |
| 2026-05-06 13:44 | 57.88898 | -32.99925 | 38215 ft | 475 kts | 283° |
| 2026-05-06 13:45 | 57.90305 | -33.12045 | 38228 ft | 474 kts | 283° |
| 2026-05-06 13:45 | 57.92391 | -33.30229 | 38240 ft | 474 kts | 283° |
| 2026-05-06 13:46 | 57.93757 | -33.42266 | 38279 ft | 473 kts | 283° |
| 2026-05-06 13:46 | 57.95121 | -33.54397 | 38218 ft | 474 kts | 283° |
| 2026-05-06 13:47 | 57.96473 | -33.66539 | 38209 ft | 474 kts | 283° |
| 2026-05-06 13:47 | 57.97815 | -33.78705 | 38222 ft | 475 kts | 283° |
| 2026-05-06 13:48 | 57.99136 | -33.90799 | 38275 ft | 474 kts | 283° |
| 2026-05-06 13:48 | 58.00455 | -34.02977 | 38271 ft | 474 kts | 283° |
| 2026-05-06 13:49 | 58.01767 | -34.15209 | 38230 ft | 476 kts | 283° |
| 2026-05-06 13:49 | 58.03064 | -34.27434 | 38285 ft | 475 kts | 283° |
| 2026-05-06 13:50 | 58.04342 | -34.39576 | 38231 ft | 476 kts | 283° |
| 2026-05-06 13:50 | 58.05617 | -34.51821 | 38234 ft | 476 kts | 282° |
| 2026-05-06 13:51 | 58.06882 | -34.64093 | 38229 ft | 477 kts | 282° |
| 2026-05-06 13:51 | 58.08133 | -34.76357 | 38277 ft | 476 kts | 283° |
| 2026-05-06 13:52 | 58.09367 | -34.88565 | 38226 ft | 477 kts | 282° |
| 2026-05-06 13:52 | 58.10598 | -35.00881 | 38287 ft | 476 kts | 282° |
| 2026-05-06 13:53 | 58.11818 | -35.13206 | 38303 ft | 476 kts | 283° |
| 2026-05-06 13:53 | 58.13026 | -35.25536 | 38287 ft | 476 kts | 282° |
| 2026-05-06 13:54 | 58.14223 | -35.37880 | 38255 ft | 477 kts | 282° |
| 2026-05-06 13:54 | 58.15397 | -35.50135 | 38278 ft | 476 kts | 282° |
| 2026-05-06 13:55 | 58.16569 | -35.62483 | 38265 ft | 476 kts | 282° |
| 2026-05-06 13:55 | 58.17729 | -35.74845 | 38254 ft | 478 kts | 282° |
| 2026-05-06 13:56 | 58.18870 | -35.87145 | 38287 ft | 477 kts | 282° |
| 2026-05-06 13:56 | 58.20007 | -35.99530 | 38273 ft | 478 kts | 281° |
| 2026-05-06 13:57 | 58.21133 | -36.11936 | 38269 ft | 478 kts | 281° |
| 2026-05-06 13:57 | 58.22248 | -36.24365 | 38291 ft | 477 kts | 281° |
| 2026-05-06 13:58 | 58.23348 | -36.36766 | 38285 ft | 477 kts | 281° |
| 2026-05-06 13:58 | 58.24430 | -36.49112 | 38274 ft | 478 kts | 282° |
| 2026-05-06 13:59 | 58.25509 | -36.61564 | 38262 ft | 479 kts | 282° |
| 2026-05-06 13:59 | 58.26576 | -36.74017 | 38296 ft | 478 kts | 281° |
| 2026-05-06 14:00 | 58.27630 | -36.86473 | 38261 ft | 479 kts | 281° |
| 2026-05-06 14:00 | 58.28668 | -36.98887 | 38282 ft | 480 kts | 281° |
| 2026-05-06 14:01 | 58.29699 | -37.11377 | 38326 ft | 478 kts | 280° |
| 2026-05-06 14:01 | 58.30717 | -37.23860 | 38276 ft | 478 kts | 280° |
| 2026-05-06 14:02 | 58.31723 | -37.36358 | 38287 ft | 478 kts | 281° |
| 2026-05-06 14:02 | 58.32710 | -37.48762 | 38306 ft | 478 kts | 280° |
| 2026-05-06 14:03 | 58.33690 | -37.61276 | 38294 ft | 478 kts | 281° |
| 2026-05-06 14:03 | 58.34661 | -37.73804 | 38300 ft | 478 kts | 281° |
| 2026-05-06 14:04 | 58.35619 | -37.86316 | 38281 ft | 478 kts | 281° |
| 2026-05-06 14:04 | 58.36563 | -37.98836 | 38293 ft | 478 kts | 280° |
| 2026-05-06 14:05 | 58.37488 | -38.11287 | 38340 ft | 477 kts | 281° |
| 2026-05-06 14:05 | 58.38408 | -38.23816 | 38285 ft | 478 kts | 281° |
| 2026-05-06 14:06 | 58.39317 | -38.36369 | 38299 ft | 479 kts | 281° |
| 2026-05-06 14:06 | 58.40213 | -38.48928 | 38357 ft | 478 kts | 281° |
| 2026-05-06 14:07 | 58.41093 | -38.61422 | 38348 ft | 478 kts | 280° |
| 2026-05-06 14:07 | 58.41966 | -38.74024 | 38353 ft | 478 kts | 280° |
| 2026-05-06 14:08 | 58.42827 | -38.86601 | 38359 ft | 478 kts | 280° |
| 2026-05-06 14:08 | 58.43675 | -38.99183 | 38294 ft | 478 kts | 279° |
| 2026-05-06 14:09 | 58.44504 | -39.11690 | 38307 ft | 478 kts | 279° |
| 2026-05-06 14:09 | 58.45326 | -39.24285 | 38340 ft | 478 kts | 279° |
| 2026-05-06 14:10 | 58.46138 | -39.36886 | 38286 ft | 479 kts | 279° |
| 2026-05-06 14:10 | 58.46935 | -39.49516 | 38332 ft | 479 kts | 280° |
| 2026-05-06 14:11 | 58.47721 | -39.62058 | 38320 ft | 479 kts | 279° |
| 2026-05-06 14:11 | 58.48504 | -39.74681 | 38288 ft | 479 kts | 279° |
| 2026-05-06 14:12 | 58.49276 | -39.87301 | 38347 ft | 478 kts | 280° |
| 2026-05-06 14:12 | 58.50040 | -39.99940 | 38272 ft | 480 kts | 278° |
| 2026-05-06 14:13 | 58.51440 | -40.12266 | 38319 ft | 476 kts | 289° |
| 2026-05-06 14:13 | 58.53354 | -40.24437 | 38306 ft | 479 kts | 289° |
| 2026-05-06 14:14 | 58.55147 | -40.36699 | 38324 ft | 479 kts | 288° |
| 2026-05-06 14:14 | 58.56874 | -40.49033 | 38346 ft | 479 kts | 287° |
| 2026-05-06 14:15 | 58.58579 | -40.61363 | 38307 ft | 480 kts | 287° |
| 2026-05-06 14:15 | 58.60258 | -40.73673 | 38357 ft | 479 kts | 288° |
| 2026-05-06 14:16 | 58.61935 | -40.86054 | 38351 ft | 479 kts | 288° |
| 2026-05-06 14:16 | 58.63593 | -40.98402 | 38328 ft | 478 kts | 287° |
| 2026-05-06 14:17 | 58.65238 | -41.10764 | 38317 ft | 478 kts | 287° |
| 2026-05-06 14:17 | 58.66876 | -41.23149 | 38310 ft | 478 kts | 286° |
| 2026-05-06 14:18 | 58.68490 | -41.35466 | 38311 ft | 479 kts | 286° |
| 2026-05-06 14:18 | 58.70104 | -41.47899 | 38349 ft | 479 kts | 287° |
| 2026-05-06 14:19 | 58.71708 | -41.60332 | 38318 ft | 480 kts | 286° |
| 2026-05-06 14:19 | 58.73303 | -41.72805 | 38298 ft | 481 kts | 285° |
| 2026-05-06 14:20 | 58.74875 | -41.85234 | 38348 ft | 481 kts | 287° |
| 2026-05-06 14:20 | 58.76446 | -41.97749 | 38374 ft | 480 kts | 286° |
| 2026-05-06 14:21 | 58.78006 | -42.10261 | 38369 ft | 480 kts | 285° |
| 2026-05-06 14:21 | 58.79541 | -42.22694 | 38334 ft | 480 kts | 286° |
| 2026-05-06 14:22 | 58.81076 | -42.35230 | 38333 ft | 480 kts | 285° |
| 2026-05-06 14:22 | 58.82596 | -42.47757 | 38328 ft | 480 kts | 285° |
| 2026-05-06 14:23 | 58.84101 | -42.60275 | 38339 ft | 479 kts | 285° |
| 2026-05-06 14:23 | 58.85584 | -42.72735 | 38355 ft | 479 kts | 285° |
| 2026-05-06 14:24 | 58.87069 | -42.85295 | 38328 ft | 480 kts | 284° |
| 2026-05-06 14:24 | 58.88539 | -42.97869 | 38323 ft | 480 kts | 285° |
| 2026-05-06 14:25 | 58.89996 | -43.10444 | 38364 ft | 479 kts | 285° |
| 2026-05-06 14:25 | 58.91443 | -43.23024 | 38358 ft | 479 kts | 285° |
| 2026-05-06 14:26 | 58.92872 | -43.35569 | 38299 ft | 481 kts | 284° |
| 2026-05-06 14:26 | 58.94300 | -43.48230 | 38314 ft | 483 kts | 284° |
| 2026-05-06 14:27 | 58.95719 | -43.60949 | 38348 ft | 484 kts | 284° |
| 2026-05-06 14:27 | 58.96893 | -43.71550 | 38352 ft | 485 kts | 284° |
| 2026-05-06 14:28 | 58.98526 | -43.86445 | 38351 ft | 486 kts | 284° |
| 2026-05-06 14:28 | 58.99918 | -43.99277 | 38353 ft | 487 kts | 284° |
| 2026-05-06 14:29 | 59.01067 | -44.09962 | 38359 ft | 487 kts | 283° |
| 2026-05-06 14:29 | 59.02437 | -44.22825 | 38340 ft | 487 kts | 283° |
| 2026-05-06 14:30 | 59.04012 | -44.37788 | 38351 ft | 486 kts | 283° |
| 2026-05-06 14:30 | 59.05134 | -44.48541 | 38319 ft | 486 kts | 283° |
| 2026-05-06 14:31 | 59.06454 | -44.61317 | 38301 ft | 485 kts | 282° |
| 2026-05-06 14:31 | 59.07770 | -44.74188 | 38300 ft | 486 kts | 282° |
| 2026-05-06 14:32 | 59.09075 | -44.87101 | 38302 ft | 487 kts | 282° |
| 2026-05-06 14:32 | 59.10370 | -45.00041 | 38307 ft | 488 kts | 282° |
| 2026-05-06 14:33 | 59.11646 | -45.12923 | 38312 ft | 488 kts | 282° |
| 2026-05-06 14:33 | 59.12918 | -45.25916 | 38304 ft | 489 kts | 281° |
| 2026-05-06 14:34 | 59.14180 | -45.38928 | 38291 ft | 489 kts | 281° |
| 2026-05-06 14:34 | 59.15428 | -45.51960 | 38291 ft | 490 kts | 281° |
| 2026-05-06 14:35 | 59.16656 | -45.64924 | 38275 ft | 491 kts | 280° |
| 2026-05-06 14:35 | 59.17883 | -45.78024 | 38271 ft | 492 kts | 280° |
| 2026-05-06 14:36 | 59.19100 | -45.91171 | 38278 ft | 492 kts | 280° |
| 2026-05-06 14:36 | 59.20304 | -46.04327 | 38297 ft | 493 kts | 280° |
| 2026-05-06 14:37 | 59.21489 | -46.17425 | 38255 ft | 494 kts | 279° |
| 2026-05-06 14:37 | 59.22670 | -46.30642 | 38250 ft | 495 kts | 279° |
| 2026-05-06 14:38 | 59.23841 | -46.43902 | 38269 ft | 495 kts | 279° |
| 2026-05-06 14:38 | 59.24999 | -46.57174 | 38247 ft | 496 kts | 279° |
| 2026-05-06 14:39 | 59.26135 | -46.70368 | 38244 ft | 496 kts | 279° |
| 2026-05-06 14:39 | 59.27266 | -46.83664 | 38247 ft | 495 kts | 278° |
| 2026-05-06 14:40 | 59.28383 | -46.96952 | 38228 ft | 495 kts | 278° |
| 2026-05-06 14:40 | 59.29484 | -47.10234 | 38208 ft | 495 kts | 277° |
| 2026-05-06 14:41 | 59.30565 | -47.23449 | 38217 ft | 495 kts | 278° |
| 2026-05-06 14:41 | 59.31640 | -47.36743 | 38206 ft | 495 kts | 277° |
| 2026-05-06 14:42 | 59.32700 | -47.50043 | 38211 ft | 495 kts | 277° |
| 2026-05-06 14:42 | 59.33747 | -47.63360 | 38198 ft | 495 kts | 277° |
| 2026-05-06 14:43 | 59.34774 | -47.76595 | 38195 ft | 495 kts | 276° |
| 2026-05-06 14:43 | 59.35794 | -47.89932 | 38192 ft | 496 kts | 276° |
| 2026-05-06 14:44 | 59.36802 | -48.03298 | 38198 ft | 496 kts | 276° |
| 2026-05-06 14:45 | 59.38292 | -48.23378 | 38177 ft | 497 kts | 275° |
| 2026-05-06 14:45 | 59.39263 | -48.36717 | 38180 ft | 498 kts | 275° |
| 2026-05-06 14:46 | 59.40229 | -48.50183 | 38175 ft | 498 kts | 275° |
| 2026-05-06 14:46 | 59.41182 | -48.63674 | 38156 ft | 500 kts | 274° |
| 2026-05-06 14:47 | 59.42121 | -48.77189 | 38177 ft | 500 kts | 276° |
| 2026-05-06 14:47 | 59.43041 | -48.90604 | 38163 ft | 500 kts | 276° |
| 2026-05-06 14:48 | 59.43953 | -49.04120 | 38149 ft | 500 kts | 274° |
| 2026-05-06 14:48 | 59.44850 | -49.17659 | 38152 ft | 500 kts | 275° |
| 2026-05-06 14:49 | 59.45728 | -49.31096 | 38172 ft | 498 kts | 274° |
| 2026-05-06 14:49 | 59.46595 | -49.44599 | 38151 ft | 497 kts | 274° |
| 2026-05-06 14:50 | 59.47448 | -49.58076 | 38144 ft | 496 kts | 274° |
| 2026-05-06 14:50 | 59.48295 | -49.71527 | 38121 ft | 495 kts | 273° |
| 2026-05-06 14:51 | 59.49123 | -49.84894 | 38138 ft | 495 kts | 274° |
| 2026-05-06 14:51 | 59.49595 | -49.98353 | 38088 ft | 491 kts | 265° |
| 2026-05-06 14:52 | 59.48894 | -50.11609 | 38084 ft | 485 kts | 255° |
| 2026-05-06 14:52 | 59.47580 | -50.24653 | 38087 ft | 487 kts | 256° |
| 2026-05-06 14:53 | 59.46333 | -50.37657 | 38101 ft | 487 kts | 256° |
| 2026-05-06 14:53 | 59.45062 | -50.50724 | 38082 ft | 487 kts | 255° |
| 2026-05-06 14:54 | 59.43766 | -50.63764 | 38073 ft | 486 kts | 255° |
| 2026-05-06 14:54 | 59.42454 | -50.76782 | 38087 ft | 485 kts | 255° |
| 2026-05-06 14:55 | 59.41131 | -50.89703 | 38037 ft | 486 kts | 253° |
| 2026-05-06 14:55 | 59.39790 | -51.02695 | 38030 ft | 486 kts | 254° |
| 2026-05-06 14:56 | 59.38442 | -51.15669 | 38044 ft | 485 kts | 253° |
| 2026-05-06 14:56 | 59.37080 | -51.28618 | 38027 ft | 484 kts | 253° |
| 2026-05-06 14:57 | 59.35715 | -51.41449 | 38016 ft | 484 kts | 253° |
| 2026-05-06 14:57 | 59.34328 | -51.54361 | 37978 ft | 485 kts | 253° |
| 2026-05-06 14:58 | 59.32933 | -51.67251 | 37990 ft | 484 kts | 253° |
| 2026-05-06 14:58 | 59.31522 | -51.80154 | 38006 ft | 484 kts | 253° |
| 2026-05-06 14:59 | 59.30104 | -51.92952 | 37997 ft | 484 kts | 253° |
| 2026-05-06 14:59 | 59.28670 | -52.05792 | 37960 ft | 483 kts | 253° |
| 2026-05-06 15:00 | 59.27230 | -52.18580 | 37965 ft | 481 kts | 253° |
| 2026-05-06 15:00 | 59.25778 | -52.31333 | 37982 ft | 480 kts | 252° |
| 2026-05-06 15:01 | 59.24325 | -52.43968 | 37966 ft | 480 kts | 252° |
| 2026-05-06 15:01 | 59.22853 | -52.56662 | 37907 ft | 480 kts | 253° |
| 2026-05-06 15:02 | 59.21365 | -52.69359 | 37938 ft | 480 kts | 252° |
| 2026-05-06 15:02 | 59.19865 | -52.82056 | 37940 ft | 480 kts | 252° |
| 2026-05-06 15:03 | 59.18363 | -52.94662 | 37937 ft | 481 kts | 251° |
| 2026-05-06 15:03 | 59.16836 | -53.07367 | 37914 ft | 482 kts | 251° |
| 2026-05-06 15:04 | 59.15294 | -53.20062 | 37908 ft | 482 kts | 253° |
| 2026-05-06 15:04 | 59.13737 | -53.32780 | 37894 ft | 483 kts | 252° |
| 2026-05-06 15:05 | 59.12181 | -53.45401 | 37925 ft | 483 kts | 251° |
| 2026-05-06 15:05 | 59.10598 | -53.58093 | 37928 ft | 481 kts | 252° |
| 2026-05-06 15:06 | 59.09009 | -53.70720 | 37883 ft | 481 kts | 252° |
| 2026-05-06 15:06 | 59.07414 | -53.83308 | 37864 ft | 479 kts | 252° |
| 2026-05-06 15:07 | 59.05819 | -53.95786 | 37876 ft | 479 kts | 251° |
| 2026-05-06 15:07 | 59.04198 | -54.08350 | 37833 ft | 479 kts | 251° |
| 2026-05-06 15:08 | 59.02566 | -54.20892 | 37837 ft | 480 kts | 251° |
| 2026-05-06 15:08 | 59.00924 | -54.33410 | 37828 ft | 480 kts | 251° |
| 2026-05-06 15:09 | 58.99278 | -54.45863 | 37810 ft | 480 kts | 251° |
| 2026-05-06 15:09 | 58.97607 | -54.58413 | 37820 ft | 480 kts | 250° |
| 2026-05-06 15:10 | 58.95923 | -54.70935 | 37802 ft | 481 kts | 250° |
| 2026-05-06 15:10 | 58.94222 | -54.83482 | 37794 ft | 482 kts | 250° |
| 2026-05-06 15:11 | 58.92517 | -54.95949 | 37793 ft | 483 kts | 251° |
| 2026-05-06 15:11 | 58.90787 | -55.08517 | 37780 ft | 483 kts | 250° |
| 2026-05-06 15:12 | 58.89047 | -55.21072 | 37790 ft | 483 kts | 250° |
| 2026-05-06 15:12 | 58.87291 | -55.33608 | 37762 ft | 483 kts | 249° |
| 2026-05-06 15:13 | 58.85535 | -55.46052 | 37758 ft | 483 kts | 250° |
| 2026-05-06 15:13 | 58.83757 | -55.58560 | 37733 ft | 484 kts | 251° |
| 2026-05-06 15:14 | 58.81966 | -55.71058 | 37730 ft | 483 kts | 250° |
| 2026-05-06 15:14 | 58.80165 | -55.83543 | 37767 ft | 482 kts | 251° |
| 2026-05-06 15:15 | 58.78357 | -55.95976 | 37735 ft | 480 kts | 249° |
| 2026-05-06 15:15 | 58.76552 | -56.08272 | 37722 ft | 479 kts | 250° |
| 2026-05-06 15:16 | 58.74732 | -56.20598 | 37659 ft | 479 kts | 250° |
| 2026-05-06 15:16 | 58.72899 | -56.32914 | 37678 ft | 478 kts | 249° |
| 2026-05-06 15:17 | 58.71070 | -56.45113 | 37672 ft | 478 kts | 249° |
| 2026-05-06 15:17 | 58.69219 | -56.57372 | 37698 ft | 476 kts | 250° |
| 2026-05-06 15:18 | 58.67363 | -56.69576 | 37677 ft | 475 kts | 249° |
| 2026-05-06 15:18 | 58.65499 | -56.81736 | 37661 ft | 475 kts | 250° |
| 2026-05-06 15:19 | 58.63622 | -56.93884 | 37611 ft | 476 kts | 250° |
| 2026-05-06 15:19 | 58.61744 | -57.05967 | 37622 ft | 476 kts | 250° |
| 2026-05-06 15:20 | 58.59836 | -57.18145 | 37615 ft | 477 kts | 249° |
| 2026-05-06 15:20 | 58.57915 | -57.30344 | 37647 ft | 478 kts | 249° |
| 2026-05-06 15:21 | 58.55978 | -57.42538 | 37616 ft | 479 kts | 249° |
| 2026-05-06 15:21 | 58.54043 | -57.54640 | 37618 ft | 479 kts | 249° |
| 2026-05-06 15:22 | 58.52085 | -57.66797 | 37593 ft | 479 kts | 249° |
| 2026-05-06 15:22 | 58.50120 | -57.78948 | 37616 ft | 478 kts | 249° |
| 2026-05-06 15:23 | 58.48149 | -57.91093 | 37560 ft | 479 kts | 249° |
| 2026-05-06 15:23 | 58.46312 | -58.03251 | 37575 ft | 482 kts | 256° |
| 2026-05-06 15:24 | 58.45446 | -58.16004 | 37576 ft | 485 kts | 259° |
| 2026-05-06 15:24 | 58.44667 | -58.28773 | 37556 ft | 484 kts | 259° |
| 2026-05-06 15:25 | 58.43805 | -58.41523 | 37569 ft | 483 kts | 259° |
| 2026-05-06 15:25 | 58.42907 | -58.54164 | 37563 ft | 484 kts | 258° |
| 2026-05-06 15:26 | 58.41988 | -58.66884 | 37520 ft | 485 kts | 259° |
| 2026-05-06 15:26 | 58.41053 | -58.79648 | 37521 ft | 486 kts | 258° |
| 2026-05-06 15:27 | 58.40103 | -58.92444 | 37536 ft | 488 kts | 258° |
| 2026-05-06 15:27 | 58.39146 | -59.05170 | 37536 ft | 489 kts | 258° |
| 2026-05-06 15:28 | 58.38167 | -59.17991 | 37537 ft | 489 kts | 258° |
| 2026-05-06 15:28 | 58.37175 | -59.30823 | 37541 ft | 489 kts | 258° |
| 2026-05-06 15:29 | 58.36170 | -59.43640 | 37568 ft | 489 kts | 258° |
| 2026-05-06 15:29 | 58.35152 | -59.56461 | 37518 ft | 490 kts | 258° |
| 2026-05-06 15:30 | 58.34126 | -59.69203 | 37520 ft | 490 kts | 258° |
| 2026-05-06 15:30 | 58.33083 | -59.81996 | 37521 ft | 490 kts | 258° |
| 2026-05-06 15:31 | 58.32026 | -59.94801 | 37535 ft | 489 kts | 258° |
| 2026-05-06 15:31 | 58.30958 | -60.07575 | 37530 ft | 489 kts | 258° |
| 2026-05-06 15:32 | 58.29342 | -60.26603 | 37541 ft | 489 kts | 258° |
| 2026-05-06 15:32 | 58.28241 | -60.39363 | 37527 ft | 489 kts | 257° |
| 2026-05-06 15:33 | 58.27128 | -60.52119 | 37528 ft | 489 kts | 257° |
| 2026-05-06 15:33 | 58.26003 | -60.64857 | 37542 ft | 490 kts | 257° |
| 2026-05-06 15:34 | 58.24870 | -60.77529 | 37545 ft | 490 kts | 257° |
| 2026-05-06 15:34 | 58.23716 | -60.90297 | 37550 ft | 490 kts | 257° |
| 2026-05-06 15:35 | 58.22549 | -61.03047 | 37546 ft | 490 kts | 257° |
| 2026-05-06 15:35 | 58.21369 | -61.15803 | 37530 ft | 492 kts | 257° |
| 2026-05-06 15:36 | 58.20180 | -61.28500 | 37545 ft | 493 kts | 257° |
| 2026-05-06 15:36 | 58.18969 | -61.41297 | 37555 ft | 493 kts | 257° |
| 2026-05-06 15:37 | 58.17744 | -61.54099 | 37548 ft | 494 kts | 257° |
| 2026-05-06 15:37 | 58.16505 | -61.66892 | 37555 ft | 494 kts | 256° |
| 2026-05-06 15:38 | 58.15264 | -61.79579 | 37561 ft | 493 kts | 256° |
| 2026-05-06 15:38 | 58.14000 | -61.92358 | 37552 ft | 494 kts | 256° |
| 2026-05-06 15:39 | 58.12722 | -62.05137 | 37552 ft | 494 kts | 256° |
| 2026-05-06 15:39 | 58.11441 | -62.17808 | 37554 ft | 494 kts | 256° |
| 2026-05-06 15:40 | 58.10140 | -62.30551 | 37560 ft | 494 kts | 256° |
| 2026-05-06 15:40 | 58.08825 | -62.43290 | 37559 ft | 494 kts | 256° |
| 2026-05-06 15:41 | 58.07497 | -62.56029 | 37562 ft | 494 kts | 256° |
| 2026-05-06 15:41 | 58.06156 | -62.68758 | 37563 ft | 495 kts | 256° |
| 2026-05-06 15:42 | 58.04810 | -62.81407 | 37567 ft | 494 kts | 256° |
| 2026-05-06 15:42 | 58.03443 | -62.94121 | 37566 ft | 494 kts | 256° |
| 2026-05-06 15:43 | 58.02065 | -63.06817 | 37561 ft | 494 kts | 256° |
| 2026-05-06 15:43 | 58.00680 | -63.19504 | 37561 ft | 494 kts | 256° |
| 2026-05-06 15:44 | 57.99193 | -63.32040 | 37561 ft | 493 kts | 253° |
| 2026-05-06 15:44 | 57.97677 | -63.44663 | 37558 ft | 495 kts | 255° |
| 2026-05-06 15:45 | 57.96194 | -63.57299 | 37577 ft | 495 kts | 255° |
| 2026-05-06 15:45 | 57.94679 | -63.69935 | 37571 ft | 494 kts | 254° |
| 2026-05-06 15:46 | 57.93152 | -63.82446 | 37567 ft | 494 kts | 254° |
| 2026-05-06 15:46 | 57.91598 | -63.95017 | 37566 ft | 493 kts | 254° |
| 2026-05-06 15:47 | 57.90037 | -64.07537 | 37565 ft | 493 kts | 254° |
| 2026-05-06 15:47 | 57.88460 | -64.20071 | 37563 ft | 492 kts | 254° |
| 2026-05-06 15:48 | 57.86885 | -64.32487 | 37572 ft | 492 kts | 254° |
| 2026-05-06 15:48 | 57.85286 | -64.44984 | 37578 ft | 492 kts | 253° |
| 2026-05-06 15:49 | 57.83674 | -64.57469 | 37580 ft | 492 kts | 253° |
| 2026-05-06 15:49 | 57.82050 | -64.69949 | 37588 ft | 492 kts | 253° |
| 2026-05-06 15:50 | 57.80416 | -64.82401 | 37584 ft | 492 kts | 253° |
| 2026-05-06 15:50 | 57.78780 | -64.94759 | 37610 ft | 492 kts | 253° |
| 2026-05-06 15:51 | 57.77119 | -65.07203 | 37577 ft | 492 kts | 253° |
| 2026-05-06 15:51 | 57.75447 | -65.19626 | 37579 ft | 493 kts | 253° |
| 2026-05-06 15:52 | 57.73762 | -65.32050 | 37599 ft | 493 kts | 253° |
| 2026-05-06 15:52 | 57.72073 | -65.44397 | 37615 ft | 493 kts | 253° |
| 2026-05-06 15:53 | 57.70362 | -65.56808 | 37613 ft | 492 kts | 253° |
| 2026-05-06 15:53 | 57.68642 | -65.69181 | 37610 ft | 492 kts | 252° |
| 2026-05-06 15:54 | 57.66906 | -65.81577 | 37599 ft | 493 kts | 252° |
| 2026-05-06 15:54 | 57.65156 | -65.93967 | 37591 ft | 493 kts | 252° |
| 2026-05-06 15:55 | 57.63409 | -66.06248 | 37595 ft | 493 kts | 252° |
| 2026-05-06 15:55 | 57.61635 | -66.18619 | 37596 ft | 493 kts | 252° |
| 2026-05-06 15:56 | 57.59849 | -66.30976 | 37594 ft | 494 kts | 252° |
| 2026-05-06 15:56 | 57.58050 | -66.43321 | 37598 ft | 494 kts | 252° |
| 2026-05-06 15:57 | 57.56251 | -66.55578 | 37586 ft | 494 kts | 252° |
| 2026-05-06 15:57 | 57.54426 | -66.67917 | 37588 ft | 494 kts | 252° |
| 2026-05-06 15:58 | 57.52591 | -66.80233 | 37596 ft | 494 kts | 252° |
| 2026-05-06 15:58 | 57.50743 | -66.92548 | 37582 ft | 494 kts | 252° |
| 2026-05-06 15:59 | 57.48895 | -67.04764 | 37593 ft | 494 kts | 252° |
| 2026-05-06 15:59 | 57.47024 | -67.17042 | 37579 ft | 494 kts | 252° |
| 2026-05-06 16:00 | 57.45142 | -67.29297 | 37587 ft | 494 kts | 252° |
| 2026-05-06 16:00 | 57.43247 | -67.41554 | 37574 ft | 494 kts | 251° |
| 2026-05-06 16:01 | 57.41354 | -67.53712 | 37566 ft | 494 kts | 251° |
| 2026-05-06 16:01 | 57.39436 | -67.65934 | 37570 ft | 494 kts | 251° |
| 2026-05-06 16:02 | 57.37506 | -67.78146 | 37560 ft | 493 kts | 251° |
| 2026-05-06 16:02 | 57.35564 | -67.90341 | 37565 ft | 493 kts | 251° |
| 2026-05-06 16:03 | 57.33624 | -68.02445 | 37557 ft | 494 kts | 251° |
| 2026-05-06 16:03 | 57.31660 | -68.14609 | 37570 ft | 494 kts | 251° |
| 2026-05-06 16:04 | 57.29681 | -68.26787 | 37552 ft | 494 kts | 251° |
| 2026-05-06 16:04 | 57.27694 | -68.38923 | 37569 ft | 494 kts | 251° |
| 2026-05-06 16:05 | 57.25709 | -68.50969 | 37561 ft | 494 kts | 251° |
| 2026-05-06 16:05 | 57.23697 | -68.63089 | 37567 ft | 494 kts | 251° |
| 2026-05-06 16:06 | 57.21672 | -68.75200 | 37561 ft | 494 kts | 251° |
| 2026-05-06 16:06 | 57.19640 | -68.87282 | 37585 ft | 493 kts | 250° |
| 2026-05-06 16:07 | 57.17610 | -68.99264 | 37559 ft | 492 kts | 250° |
| 2026-05-06 16:07 | 57.15557 | -69.11300 | 37557 ft | 492 kts | 250° |
| 2026-05-06 16:08 | 57.13493 | -69.23319 | 37549 ft | 492 kts | 250° |
| 2026-05-06 16:08 | 57.11421 | -69.35306 | 37548 ft | 492 kts | 250° |
| 2026-05-06 16:09 | 57.09351 | -69.47204 | 37544 ft | 492 kts | 250° |
| 2026-05-06 16:09 | 57.07259 | -69.59148 | 37529 ft | 492 kts | 250° |
| 2026-05-06 16:10 | 57.05153 | -69.71096 | 37536 ft | 492 kts | 250° |
| 2026-05-06 16:10 | 57.03039 | -69.83035 | 37531 ft | 492 kts | 250° |
| 2026-05-06 16:11 | 57.00935 | -69.94876 | 37541 ft | 492 kts | 250° |
| 2026-05-06 16:11 | 56.98867 | -70.06855 | 37545 ft | 493 kts | 251° |
| 2026-05-06 16:12 | 56.97044 | -70.18966 | 37552 ft | 493 kts | 253° |
| 2026-05-06 16:12 | 56.95223 | -70.31099 | 37548 ft | 494 kts | 252° |
| 2026-05-06 16:13 | 56.93375 | -70.43205 | 37553 ft | 494 kts | 251° |
| 2026-05-06 16:13 | 56.91521 | -70.55207 | 37555 ft | 494 kts | 252° |
| 2026-05-06 16:14 | 56.89641 | -70.67264 | 37537 ft | 493 kts | 252° |
| 2026-05-06 16:14 | 56.87745 | -70.79304 | 37525 ft | 493 kts | 252° |
| 2026-05-06 16:15 | 56.85850 | -70.91237 | 37538 ft | 492 kts | 251° |
| 2026-05-06 16:15 | 56.83932 | -71.03229 | 37518 ft | 492 kts | 252° |
| 2026-05-06 16:16 | 56.82001 | -71.15222 | 37531 ft | 492 kts | 251° |
| 2026-05-06 16:16 | 56.80057 | -71.27209 | 37535 ft | 493 kts | 252° |
| 2026-05-06 16:17 | 56.78103 | -71.39182 | 37553 ft | 492 kts | 251° |
| 2026-05-06 16:17 | 56.76148 | -71.51073 | 37540 ft | 493 kts | 252° |
| 2026-05-06 16:18 | 56.74167 | -71.63043 | 37546 ft | 493 kts | 251° |
| 2026-05-06 16:18 | 56.72178 | -71.74979 | 37536 ft | 493 kts | 251° |
| 2026-05-06 16:19 | 56.70176 | -71.86912 | 37529 ft | 493 kts | 251° |
| 2026-05-06 16:19 | 56.68176 | -71.98747 | 37517 ft | 493 kts | 251° |
| 2026-05-06 16:20 | 56.66155 | -72.10626 | 37527 ft | 492 kts | 251° |
| 2026-05-06 16:20 | 56.64122 | -72.22501 | 37537 ft | 492 kts | 251° |
| 2026-05-06 16:21 | 56.62080 | -72.34356 | 37529 ft | 492 kts | 251° |
| 2026-05-06 16:21 | 56.60038 | -72.46134 | 37520 ft | 492 kts | 251° |
| 2026-05-06 16:22 | 56.57969 | -72.57981 | 37538 ft | 492 kts | 251° |
| 2026-05-06 16:22 | 56.55889 | -72.69815 | 37538 ft | 493 kts | 251° |
| 2026-05-06 16:23 | 56.53793 | -72.81666 | 37542 ft | 493 kts | 250° |
| 2026-05-06 16:23 | 56.51700 | -72.93423 | 37538 ft | 493 kts | 250° |
| 2026-05-06 16:24 | 56.49584 | -73.05239 | 37526 ft | 494 kts | 250° |
| 2026-05-06 16:24 | 56.47451 | -73.17063 | 37540 ft | 494 kts | 250° |
| 2026-05-06 16:25 | 56.45310 | -73.28860 | 37542 ft | 494 kts | 251° |
| 2026-05-06 16:25 | 56.43156 | -73.40653 | 37540 ft | 494 kts | 251° |
| 2026-05-06 16:26 | 56.41008 | -73.52340 | 37524 ft | 494 kts | 250° |
| 2026-05-06 16:26 | 56.38836 | -73.64085 | 37520 ft | 494 kts | 250° |
| 2026-05-06 16:27 | 56.36653 | -73.75811 | 37515 ft | 494 kts | 250° |
| 2026-05-06 16:27 | 56.34456 | -73.87541 | 37513 ft | 494 kts | 250° |
| 2026-05-06 16:28 | 56.32263 | -73.99185 | 37536 ft | 494 kts | 250° |
| 2026-05-06 16:28 | 56.30044 | -74.10898 | 37536 ft | 494 kts | 250° |